ESCF/LPI METAR and TAF weather

Enter ICAO airport designator
Station Type Date Time Source
ESCF METAR 2019/12/11 17:20 UTC NOAA

ESCF 111720Z AUTO 18006KT 9999 SCT012/// 02/02 Q1003


Station Type Date Time Source
ESCF Decoded METAR 2019/12/11 17:20 UTC NOAA

Linkoping / Malmen, Sweden (ESCF) 58-24N 015-31E 117M
Dec 11, 2019 - 12:20 PM EST / 2019.12.11 1720 UTC
Wind: from the S (180 degrees) at 7 MPH (6 KT):0
Visibility: greater than 7 mile(s):0
Sky conditions: partly cloudy
Temperature: 35 F (2 C)
Windchill: 28 F (-2 C):1
Dew Point: 35 F (2 C)
Relative Humidity: 100%
Pressure (altimeter): 29.62 in. Hg (1003 hPa)
ob: ESCF 111720Z AUTO 18006KT 9999 SCT012/// 02/02 Q1003
cycle: 17

Station Type Date Time Source
ESCF TAF UTC NOAA

Error!

Example: see airport list